createdAt,value
2019-03-16T00:01:15.683Z,5.90
2019-03-16T00:03:51.852Z,5.90
2019-03-16T00:06:27.992Z,6.30
2019-03-16T00:08:55.842Z,6.10
2019-03-16T00:11:27.486Z,6.00
2019-03-16T00:13:57.493Z,5.80
2019-03-16T00:16:34.097Z,6.30
2019-03-16T00:19:01.161Z,5.90
2019-03-16T00:21:32.129Z,6.10
2019-03-16T00:24:01.063Z,5.80
2019-03-16T00:26:30.823Z,5.60
2019-03-16T00:28:58.914Z,6.00
2019-03-16T00:31:33.052Z,6.30
2019-03-16T00:34:00.314Z,6.50
2019-03-16T00:36:29.154Z,6.20
2019-03-16T00:38:56.011Z,5.80
2019-03-16T00:41:27.759Z,6.00
2019-03-16T00:44:04.571Z,6.30
2019-03-16T00:46:32.246Z,6.10
2019-03-16T00:49:01.947Z,5.60
2019-03-16T00:51:32.015Z,5.70
2019-03-16T00:53:58.342Z,5.50
2019-03-16T00:56:27.471Z,5.70
2019-03-16T00:58:55.110Z,6.00
2019-03-16T01:01:24.061Z,5.70
2019-03-16T01:03:54.631Z,5.60
2019-03-16T01:06:25.217Z,5.00
2019-03-16T01:08:54.946Z,5.10
2019-03-16T01:11:23.544Z,5.40
2019-03-16T01:13:51.447Z,5.20
2019-03-16T01:16:19.244Z,5.40
2019-03-16T01:18:46.119Z,5.50
2019-03-16T01:21:17.086Z,5.50
2019-03-16T01:23:44.286Z,5.00
2019-03-16T01:26:26.459Z,5.20
2019-03-16T01:28:46.595Z,5.30
2019-03-16T01:31:14.364Z,5.00
2019-03-16T01:33:45.422Z,5.50
2019-03-16T01:36:26.567Z,5.20
2019-03-16T01:38:46.768Z,5.20
2019-03-16T01:41:17.627Z,4.90
2019-03-16T01:43:47.307Z,4.40
2019-03-16T01:46:14.679Z,4.70
2019-03-16T01:48:44.099Z,4.80
2019-03-16T01:51:13.057Z,4.80
2019-03-16T01:53:57.169Z,4.50
2019-03-16T01:56:23.904Z,5.00
2019-03-16T01:58:54.114Z,5.40
2019-03-16T02:01:20.798Z,5.40
2019-03-16T02:03:47.600Z,5.60
2019-03-16T02:09:00.093Z,5.20
2019-03-16T02:11:26.716Z,5.20
2019-03-16T02:13:53.639Z,5.00
2019-03-16T02:16:20.352Z,4.80
2019-03-16T02:18:46.961Z,4.80
2019-03-16T02:21:14.084Z,5.00
2019-03-16T02:23:42.440Z,5.20
2019-03-16T02:26:08.996Z,5.70
2019-03-16T02:28:36.054Z,5.60
2019-03-16T02:31:03.034Z,5.40
2019-03-16T02:33:29.971Z,5.40
2019-03-16T02:35:56.707Z,5.00
2019-03-16T02:38:23.311Z,5.10
2019-03-16T02:40:50.074Z,5.40
2019-03-16T02:43:16.771Z,5.30
2019-03-16T02:45:43.530Z,5.30
2019-03-16T02:48:10.342Z,4.50
2019-03-16T02:50:37.288Z,4.50
2019-03-16T02:53:03.908Z,5.00
2019-03-16T02:55:30.481Z,4.70
2019-03-16T02:57:57.439Z,5.00
2019-03-16T03:00:24.309Z,4.90
2019-03-16T03:02:50.933Z,4.70
2019-03-16T03:05:17.820Z,5.10
2019-03-16T03:07:44.660Z,4.90
2019-03-16T03:10:12.939Z,4.00
2019-03-16T03:12:39.631Z,4.20
2019-03-16T03:15:06.318Z,4.80
2019-03-16T03:17:32.921Z,4.70
2019-03-16T03:19:59.755Z,4.70
2019-03-16T03:22:26.949Z,5.20
2019-03-16T03:24:53.816Z,5.00
2019-03-16T03:27:20.430Z,4.90
2019-03-16T03:29:47.117Z,5.10
2019-03-16T03:32:14.133Z,5.00
2019-03-16T03:34:40.970Z,5.10
2019-03-16T03:37:07.973Z,4.70
2019-03-16T03:39:34.621Z,4.70
2019-03-16T03:42:01.306Z,5.00
2019-03-16T03:44:28.162Z,5.50
2019-03-16T03:46:55.430Z,5.70
2019-03-16T03:49:22.286Z,5.20
2019-03-16T03:51:49.260Z,5.10
2019-03-16T03:54:15.897Z,4.90
2019-03-16T03:56:43.568Z,4.80
2019-03-16T03:59:10.476Z,5.20
2019-03-16T04:01:37.369Z,5.50
2019-03-16T04:04:14.941Z,5.50
2019-03-16T04:06:34.288Z,5.70
2019-03-16T04:09:00.883Z,5.50
2019-03-16T04:11:27.762Z,5.30
2019-03-16T04:13:54.612Z,4.90
2019-03-16T04:16:21.475Z,5.20
2019-03-16T04:18:51.383Z,5.50
2019-03-16T04:21:16.684Z,5.20
2019-03-16T04:23:43.994Z,5.10
2019-03-16T04:26:10.719Z,4.80
2019-03-16T04:28:37.328Z,4.80
2019-03-16T04:31:04.020Z,4.70
2019-03-16T04:33:30.900Z,5.20
2019-03-16T04:35:57.859Z,4.80
2019-03-16T04:38:24.453Z,4.90
2019-03-16T04:40:51.057Z,5.10
2019-03-16T04:43:18.000Z,5.10
2019-03-16T04:45:44.595Z,4.60
2019-03-16T04:48:11.252Z,4.80
2019-03-16T04:50:38.130Z,4.90
2019-03-16T04:53:04.823Z,4.70
2019-03-16T04:55:31.491Z,5.20
2019-03-16T04:57:58.275Z,5.40
2019-03-16T05:00:24.914Z,5.50
2019-03-16T05:02:51.532Z,5.70
2019-03-16T05:05:18.645Z,5.90
2019-03-16T05:07:45.496Z,5.80
2019-03-16T05:10:12.408Z,6.20
2019-03-16T05:12:39.037Z,6.30
2019-03-16T05:15:05.704Z,6.40
2019-03-16T05:17:32.551Z,6.20
2019-03-16T05:19:59.178Z,5.80
2019-03-16T05:22:25.847Z,5.30
2019-03-16T05:24:52.688Z,5.60
2019-03-16T05:27:19.566Z,5.20
2019-03-16T05:29:46.829Z,5.50
2019-03-16T05:32:15.065Z,5.50
2019-03-16T05:34:55.663Z,5.50
2019-03-16T05:37:10.256Z,5.80
2019-03-16T05:39:36.899Z,5.90
2019-03-16T05:42:05.198Z,5.60
2019-03-16T05:44:32.170Z,5.50
2019-03-16T05:46:58.954Z,5.90
2019-03-16T05:49:25.600Z,5.40
2019-03-16T05:51:52.240Z,5.80
2019-03-16T05:54:19.581Z,5.90
2019-03-16T05:56:46.301Z,6.10
2019-03-16T05:59:13.062Z,6.30
2019-03-16T06:01:39.672Z,6.50
2019-03-16T06:04:06.431Z,7.00
2019-03-16T06:09:18.832Z,7.00
2019-03-16T06:11:45.763Z,6.30
2019-03-16T06:14:12.462Z,6.50
2019-03-16T06:16:39.393Z,6.70
2019-03-16T06:19:05.968Z,6.70
2019-03-16T06:21:32.826Z,6.20
2019-03-16T06:23:59.686Z,6.50
2019-03-16T06:26:26.559Z,7.00
2019-03-16T06:28:53.478Z,7.10
2019-03-16T06:31:20.373Z,7.40
2019-03-16T06:33:47.229Z,7.70
2019-03-16T06:36:13.846Z,6.70
2019-03-16T06:38:40.715Z,6.80
2019-03-16T06:41:07.366Z,6.60
2019-03-16T06:43:34.035Z,7.00
2019-03-16T06:46:00.835Z,7.40
2019-03-16T06:48:27.467Z,7.80
2019-03-16T06:50:54.061Z,7.80
2019-03-16T06:53:20.916Z,7.70
2019-03-16T06:55:47.671Z,8.20
2019-03-16T06:58:15.500Z,8.10
2019-03-16T07:00:42.141Z,8.60
2019-03-16T07:03:08.749Z,8.70
2019-03-16T07:05:38.597Z,8.80
2019-03-16T07:08:03.661Z,8.30
2019-03-16T07:10:30.411Z,8.50
2019-03-16T07:12:57.303Z,8.30
2019-03-16T07:15:23.880Z,8.70
2019-03-16T07:17:50.541Z,8.90
2019-03-16T07:20:17.541Z,9.00
2019-03-16T07:22:44.446Z,8.40
2019-03-16T07:25:11.179Z,8.60
2019-03-16T07:27:37.928Z,8.10
2019-03-16T07:30:04.568Z,8.60
2019-03-16T07:32:31.178Z,9.10
2019-03-16T07:34:57.892Z,8.90
2019-03-16T07:37:24.807Z,8.70
2019-03-16T07:39:51.726Z,9.40
2019-03-16T07:42:18.342Z,9.60
2019-03-16T07:44:44.931Z,9.90
2019-03-16T07:47:11.851Z,9.80
2019-03-16T07:49:39.136Z,9.70
2019-03-16T07:52:06.124Z,9.60
2019-03-16T07:54:33.043Z,10.00
2019-03-16T07:56:59.685Z,10.00
2019-03-16T07:59:26.287Z,10.00
2019-03-16T08:01:53.464Z,9.90
2019-03-16T08:04:20.185Z,10.40
2019-03-16T08:06:47.549Z,10.70
2019-03-16T08:09:14.383Z,11.00
2019-03-16T08:11:41.337Z,11.10
2019-03-16T08:14:08.246Z,11.00
2019-03-16T08:16:34.918Z,11.60
2019-03-16T08:19:01.618Z,11.70
2019-03-16T08:21:28.536Z,12.00
2019-03-16T08:23:55.520Z,11.90
2019-03-16T08:26:22.435Z,11.90
2019-03-16T08:28:49.630Z,11.90
2019-03-16T08:31:17.838Z,12.20
2019-03-16T08:33:44.552Z,12.50
2019-03-16T08:36:11.488Z,12.60
2019-03-16T08:38:38.115Z,12.00
2019-03-16T08:41:05.032Z,12.10
2019-03-16T08:43:31.954Z,12.70
2019-03-16T08:45:58.726Z,12.70
2019-03-16T08:48:25.417Z,12.30
2019-03-16T08:50:52.215Z,12.10
2019-03-16T08:53:18.936Z,12.10
2019-03-16T08:55:48.747Z,12.10
2019-03-16T08:58:15.558Z,12.40
2019-03-16T09:00:42.996Z,12.10
2019-03-16T09:03:10.219Z,12.10
2019-03-16T09:05:37.242Z,11.30
2019-03-16T09:08:04.591Z,10.90
2019-03-16T09:10:31.476Z,11.10
2019-03-16T09:12:58.186Z,11.50
2019-03-16T09:15:25.151Z,11.70
2019-03-16T09:17:52.695Z,12.10
2019-03-16T09:20:19.472Z,11.80
2019-03-16T09:22:46.460Z,12.00
2019-03-16T09:25:13.534Z,11.80
2019-03-16T09:27:40.694Z,11.60
2019-03-16T09:30:07.916Z,12.20
2019-03-16T09:32:34.910Z,11.70
2019-03-16T09:35:01.875Z,11.30
2019-03-16T09:37:28.655Z,11.60
2019-03-16T09:39:55.377Z,11.80
2019-03-16T09:42:22.414Z,12.20
2019-03-16T09:44:49.211Z,12.50
2019-03-16T09:47:15.947Z,12.50
2019-03-16T09:49:42.853Z,12.60
2019-03-16T09:52:09.557Z,12.50
2019-03-16T09:54:36.612Z,12.30
2019-03-16T09:57:03.530Z,12.50
2019-03-16T09:59:30.726Z,13.00
2019-03-16T10:01:57.359Z,13.30
2019-03-16T10:04:24.209Z,13.10
2019-03-16T10:06:51.429Z,13.10
2019-03-16T10:09:19.534Z,13.30
2019-03-16T10:11:46.263Z,13.30
2019-03-16T10:14:13.357Z,12.90
2019-03-16T10:16:40.388Z,13.20
2019-03-16T10:19:07.850Z,13.50
2019-03-16T10:21:34.831Z,13.30
2019-03-16T10:24:01.579Z,12.80
2019-03-16T10:26:28.648Z,12.50
2019-03-16T10:28:55.774Z,12.70
2019-03-16T10:31:22.563Z,12.40
2019-03-16T10:33:50.003Z,12.30
2019-03-16T10:36:16.674Z,12.20
2019-03-16T10:38:43.590Z,12.50
2019-03-16T10:41:10.447Z,12.90
2019-03-16T10:43:37.064Z,13.20
2019-03-16T10:46:03.958Z,12.90
2019-03-16T10:48:30.833Z,12.50
2019-03-16T10:50:58.001Z,12.60
2019-03-16T10:53:24.898Z,12.90
2019-03-16T10:55:52.132Z,12.40
2019-03-16T10:58:20.225Z,12.50
2019-03-16T11:00:47.022Z,12.50
2019-03-16T11:03:13.672Z,13.40
2019-03-16T11:05:40.514Z,13.60
2019-03-16T11:08:07.545Z,13.80
2019-03-16T11:10:34.564Z,13.50
2019-03-16T11:13:01.650Z,13.60
2019-03-16T11:15:28.556Z,13.50
2019-03-16T11:17:55.481Z,13.80
2019-03-16T11:20:22.539Z,13.70
2019-03-16T11:22:50.702Z,13.90
2019-03-16T11:25:17.350Z,13.70
2019-03-16T11:27:44.011Z,13.00
2019-03-16T11:30:10.637Z,12.90
2019-03-16T11:32:37.538Z,12.90
2019-03-16T11:35:04.206Z,13.10
2019-03-16T11:37:30.843Z,13.60
2019-03-16T11:39:57.725Z,13.90
2019-03-16T11:42:24.641Z,14.30
2019-03-16T11:44:51.257Z,14.00
2019-03-16T11:47:17.862Z,14.20
2019-03-16T11:49:44.692Z,14.40
2019-03-16T11:52:11.386Z,14.50
2019-03-16T11:54:38.007Z,14.50
2019-03-16T11:57:05.158Z,14.70
2019-03-16T11:59:31.825Z,14.60
2019-03-16T12:02:05.273Z,14.20
2019-03-16T12:04:27.508Z,14.30
2019-03-16T12:09:30.352Z,14.40
2019-03-16T12:11:57.318Z,14.30
2019-03-16T12:14:24.373Z,14.40
2019-03-16T12:16:52.485Z,14.60
2019-03-16T12:19:19.301Z,14.60
2019-03-16T12:21:46.032Z,14.50
2019-03-16T12:24:12.671Z,14.40
2019-03-16T12:26:39.665Z,14.00
2019-03-16T12:29:06.535Z,14.30
2019-03-16T12:31:33.407Z,14.90
2019-03-16T12:34:00.324Z,15.00
2019-03-16T12:36:26.948Z,14.50
2019-03-16T12:38:53.940Z,14.90
2019-03-16T12:41:20.647Z,14.70
2019-03-16T12:43:48.291Z,14.80
2019-03-16T12:46:15.905Z,15.00
2019-03-16T12:48:43.726Z,15.70
2019-03-16T12:51:12.016Z,15.70
2019-03-16T12:53:39.603Z,15.20
2019-03-16T12:56:06.272Z,15.10
2019-03-16T12:58:33.165Z,14.60
2019-03-16T13:01:00.035Z,15.50
2019-03-16T13:03:27.511Z,15.80
2019-03-16T13:05:54.404Z,16.10
2019-03-16T13:08:21.154Z,15.20
2019-03-16T13:10:48.461Z,14.90
2019-03-16T13:13:15.443Z,15.20
2019-03-16T13:15:43.213Z,15.20
2019-03-16T13:18:10.782Z,15.30
2019-03-16T13:20:37.686Z,16.00
2019-03-16T13:23:04.334Z,16.10
2019-03-16T13:25:31.017Z,16.20
2019-03-16T13:28:01.364Z,16.20
2019-03-16T13:30:32.951Z,16.40
2019-03-16T13:33:03.590Z,15.50
2019-03-16T13:35:35.498Z,16.10
2019-03-16T13:38:04.763Z,16.30
2019-03-16T13:40:36.288Z,15.90
2019-03-16T13:43:05.928Z,15.80
2019-03-16T13:45:37.142Z,15.80
2019-03-16T13:48:04.401Z,16.10
2019-03-16T13:53:18.015Z,17.80
2019-03-16T13:55:46.507Z,17.90
2019-03-16T13:58:14.178Z,17.40
2019-03-16T14:03:30.513Z,17.20
2019-03-16T14:08:46.241Z,17.30
2019-03-16T14:11:18.921Z,17.40
2019-03-16T14:13:45.567Z,17.40
2019-03-16T14:16:18.345Z,17.40
2019-03-16T14:18:45.782Z,17.30
2019-03-16T14:21:13.669Z,16.10
2019-03-16T14:23:40.836Z,16.10
2019-03-16T14:26:12.122Z,15.90
2019-03-16T14:28:41.002Z,15.60
2019-03-16T14:31:10.562Z,15.90
2019-03-16T14:33:40.144Z,16.10
2019-03-16T14:36:25.845Z,16.50
2019-03-16T14:38:54.478Z,16.40
2019-03-16T14:41:33.408Z,16.50
2019-03-16T14:44:02.219Z,16.90
2019-03-16T14:46:32.634Z,17.00
2019-03-16T14:49:02.671Z,16.80
2019-03-16T14:51:31.762Z,16.80
2019-03-16T14:53:59.128Z,16.50
2019-03-16T14:56:30.440Z,16.70
2019-03-16T14:58:58.552Z,16.80
2019-03-16T15:01:25.578Z,16.20
2019-03-16T15:03:52.253Z,16.20
2019-03-16T15:06:19.207Z,16.10
2019-03-16T15:08:46.251Z,16.10
2019-03-16T15:11:13.178Z,16.20
2019-03-16T15:13:41.248Z,16.40
2019-03-16T15:16:08.672Z,16.10
2019-03-16T15:18:35.637Z,16.20
2019-03-16T15:21:02.595Z,16.60
2019-03-16T15:23:29.562Z,17.00
2019-03-16T15:25:56.693Z,17.20
2019-03-16T15:28:24.764Z,17.10
2019-03-16T15:30:51.519Z,16.60
2019-03-16T15:33:18.516Z,16.30
2019-03-16T15:35:45.223Z,16.00
2019-03-16T15:38:12.125Z,16.50
2019-03-16T15:40:38.953Z,16.00
2019-03-16T15:43:05.962Z,15.80
2019-03-16T15:45:32.678Z,16.30
2019-03-16T15:47:59.632Z,16.40
2019-03-16T15:50:26.855Z,16.50
2019-03-16T15:52:55.208Z,16.60
2019-03-16T15:55:21.855Z,16.90
2019-03-16T15:57:48.481Z,16.60
2019-03-16T16:00:15.826Z,16.60
2019-03-16T16:02:43.127Z,16.40
2019-03-16T16:05:10.566Z,16.20
2019-03-16T16:10:25.920Z,16.60
2019-03-16T16:13:11.119Z,16.70
2019-03-16T16:15:39.405Z,16.70
2019-03-16T16:18:07.444Z,16.60
2019-03-16T16:20:36.699Z,16.40
2019-03-16T16:23:07.010Z,16.10
2019-03-16T16:25:34.712Z,15.90
2019-03-16T16:28:05.534Z,15.90
2019-03-16T16:30:33.972Z,16.10
2019-03-16T16:35:48.181Z,16.10
2019-03-16T16:38:19.866Z,15.70
2019-03-16T16:40:47.662Z,15.60
2019-03-16T16:46:05.045Z,15.40
2019-03-16T16:48:32.954Z,15.30
2019-03-16T16:51:04.870Z,15.20
2019-03-16T16:53:33.670Z,15.00
2019-03-16T16:56:06.820Z,14.90
2019-03-16T16:58:37.087Z,14.80
2019-03-16T17:01:08.037Z,14.80
2019-03-16T17:03:34.989Z,14.60
2019-03-16T17:06:02.983Z,14.40
2019-03-16T17:08:29.917Z,13.50
2019-03-16T17:10:56.680Z,13.40
2019-03-16T17:13:23.273Z,13.60
2019-03-16T17:15:49.993Z,13.70
2019-03-16T17:18:16.621Z,13.70
2019-03-16T17:20:43.247Z,13.60
2019-03-16T17:23:11.141Z,13.50
2019-03-16T17:25:38.148Z,13.50
2019-03-16T17:28:05.494Z,13.40
2019-03-16T17:30:32.193Z,13.60
2019-03-16T17:32:59.796Z,13.50
2019-03-16T17:35:27.172Z,13.30
2019-03-16T17:37:53.797Z,13.20
2019-03-16T17:40:20.443Z,13.20
2019-03-16T17:42:47.320Z,13.00
2019-03-16T17:45:13.935Z,12.80
2019-03-16T17:47:40.855Z,12.70
2019-03-16T17:50:07.580Z,12.80
2019-03-16T17:52:45.278Z,12.70
2019-03-16T17:55:11.909Z,12.30
2019-03-16T17:57:38.935Z,12.10
2019-03-16T18:00:05.747Z,12.20
2019-03-16T18:02:32.449Z,12.30
2019-03-16T18:05:02.264Z,12.20
2019-03-16T18:07:40.972Z,12.10
2019-03-16T18:10:13.961Z,12.10
2019-03-16T18:12:43.049Z,12.20
2019-03-16T18:15:11.904Z,12.20
2019-03-16T18:17:46.977Z,12.10
2019-03-16T18:20:17.603Z,11.70
2019-03-16T18:25:33.802Z,11.80
2019-03-16T18:28:05.098Z,11.60
2019-03-16T18:30:34.705Z,11.20
2019-03-16T18:33:03.695Z,11.20
2019-03-16T18:35:36.750Z,11.50
2019-03-16T18:38:06.668Z,11.20
2019-03-16T18:40:34.802Z,11.00
2019-03-16T18:43:07.708Z,11.30
2019-03-16T18:48:21.355Z,11.20
2019-03-16T18:50:53.246Z,10.90
2019-03-16T18:53:20.133Z,10.90
2019-03-16T18:55:50.104Z,11.00
2019-03-16T18:58:17.252Z,11.20
2019-03-16T19:00:46.265Z,10.70
2019-03-16T19:03:17.410Z,10.50
2019-03-16T19:05:49.343Z,10.70
2019-03-16T19:08:19.808Z,10.60
2019-03-16T19:10:48.578Z,10.50
2019-03-16T19:13:15.473Z,10.80
2019-03-16T19:18:29.875Z,10.80
2019-03-16T19:21:01.058Z,10.60
2019-03-16T19:23:29.163Z,10.70
2019-03-16T19:26:00.046Z,10.00
2019-03-16T19:31:20.795Z,9.40
2019-03-16T19:33:53.021Z,9.50
2019-03-16T19:36:19.991Z,9.70
2019-03-16T19:38:47.607Z,9.70
2019-03-16T19:41:18.237Z,9.80
2019-03-16T19:46:36.550Z,9.90
2019-03-16T19:49:11.755Z,9.70
2019-03-16T19:51:41.631Z,9.50
2019-03-16T19:54:10.371Z,9.40
2019-03-16T19:56:37.258Z,9.30
2019-03-16T19:59:08.517Z,9.30
2019-03-16T20:01:36.963Z,9.40
2019-03-16T20:04:03.852Z,9.30
2019-03-16T20:09:16.550Z,9.40
2019-03-16T20:11:43.431Z,9.60
2019-03-16T20:14:11.813Z,9.80
2019-03-16T20:16:44.823Z,9.40
2019-03-16T20:19:14.532Z,9.10
2019-03-16T20:21:43.776Z,9.30
2019-03-16T20:24:12.812Z,9.50
2019-03-16T20:26:44.943Z,9.50
2019-03-16T20:29:12.546Z,9.60
2019-03-16T20:31:46.769Z,9.50
2019-03-16T20:34:13.260Z,9.60
2019-03-16T20:36:42.178Z,8.90
2019-03-16T20:39:10.812Z,8.50
2019-03-16T20:41:42.868Z,8.40
2019-03-16T20:44:12.225Z,8.30
2019-03-16T20:46:44.672Z,8.50
2019-03-16T20:49:16.126Z,8.40
2019-03-16T20:51:45.850Z,8.40
2019-03-16T20:54:17.179Z,8.50
2019-03-16T20:56:47.481Z,8.10
2019-03-16T20:59:17.366Z,8.30
2019-03-16T21:01:46.202Z,8.00
2019-03-16T21:04:15.701Z,7.50
2019-03-16T21:06:48.541Z,8.20
2019-03-16T21:09:15.260Z,8.50
2019-03-16T21:11:42.917Z,8.80
2019-03-16T21:14:13.227Z,8.70
2019-03-16T21:16:40.506Z,9.00
2019-03-16T21:19:13.409Z,9.00
2019-03-16T21:21:45.822Z,8.70
2019-03-16T21:24:14.880Z,7.80
2019-03-16T21:26:52.564Z,8.00
2019-03-16T21:29:13.051Z,8.50
2019-03-16T21:31:42.873Z,8.10
2019-03-16T21:34:13.596Z,7.90
2019-03-16T21:39:32.528Z,7.90
2019-03-16T21:42:03.523Z,8.10
2019-03-16T21:44:33.889Z,8.20
2019-03-16T21:49:47.139Z,7.90
2019-03-16T21:52:14.716Z,7.40
2019-03-16T21:54:45.942Z,7.30
2019-03-16T21:57:18.992Z,7.70
2019-03-16T21:59:48.457Z,7.50
2019-03-16T22:02:19.196Z,7.40
2019-03-16T22:04:52.315Z,7.70
2019-03-16T22:07:20.416Z,7.60
2019-03-16T22:09:47.046Z,6.70
2019-03-16T22:12:13.931Z,7.00
2019-03-16T22:14:40.631Z,7.10
2019-03-16T22:17:07.286Z,7.10
2019-03-16T22:19:33.930Z,7.30
2019-03-16T22:22:00.605Z,7.10
2019-03-16T22:24:27.208Z,7.50
2019-03-16T22:26:53.915Z,7.40
2019-03-16T22:29:20.501Z,7.90
2019-03-16T22:31:47.127Z,7.80
2019-03-16T22:34:13.784Z,7.40
2019-03-16T22:36:40.512Z,7.20
2019-03-16T22:39:07.117Z,7.30
2019-03-16T22:41:33.775Z,7.00
2019-03-16T22:44:00.386Z,7.00
2019-03-16T22:46:27.048Z,7.00
2019-03-16T22:48:53.699Z,7.20
2019-03-16T22:51:21.069Z,6.90
2019-03-16T22:53:47.739Z,6.90
2019-03-16T22:56:14.356Z,7.30
2019-03-16T22:58:41.676Z,7.70
2019-03-16T23:01:15.940Z,7.80
2019-03-16T23:03:42.633Z,7.00
2019-03-16T23:06:12.623Z,7.10
2019-03-16T23:08:37.805Z,6.60
2019-03-16T23:11:04.576Z,7.10
2019-03-16T23:13:31.165Z,6.60
2019-03-16T23:15:57.968Z,6.50
2019-03-16T23:18:24.586Z,6.60
2019-03-16T23:20:51.891Z,6.80
2019-03-16T23:23:18.508Z,6.70
2019-03-16T23:25:45.176Z,6.90
2019-03-16T23:28:11.932Z,7.00
2019-03-16T23:30:38.555Z,6.70
2019-03-16T23:33:05.200Z,6.90
2019-03-16T23:35:31.810Z,6.70
2019-03-16T23:37:58.402Z,6.70
2019-03-16T23:40:25.098Z,6.90
2019-03-16T23:42:51.708Z,7.00
2019-03-16T23:45:18.361Z,6.20
2019-03-16T23:47:44.975Z,6.50
2019-03-16T23:50:11.611Z,6.80
2019-03-16T23:52:38.315Z,6.60
2019-03-16T23:55:04.901Z,6.80
2019-03-16T23:57:31.516Z,6.80
2019-03-16T23:59:58.101Z,6.80
